createdAt,value
2019-01-04T00:01:38.885Z,0.80
2019-01-04T00:04:07.393Z,0.80
2019-01-04T00:06:35.850Z,0.80
2019-01-04T00:09:05.818Z,0.80
2019-01-04T00:11:34.398Z,0.80
2019-01-04T00:14:02.909Z,0.80
2019-01-04T00:16:31.375Z,0.80
2019-01-04T00:19:00.094Z,0.80
2019-01-04T00:21:28.782Z,0.80
2019-01-04T00:23:57.238Z,0.80
2019-01-04T00:26:25.765Z,0.90
2019-01-04T00:28:54.265Z,0.90
2019-01-04T00:31:22.718Z,1.00
2019-01-04T00:33:51.150Z,1.00
2019-01-04T00:36:19.653Z,1.00
2019-01-04T00:38:48.126Z,1.00
2019-01-04T00:41:16.580Z,1.00
2019-01-04T00:43:45.094Z,0.90
2019-01-04T00:46:13.538Z,1.00
2019-01-04T00:48:42.002Z,1.00
2019-01-04T00:51:10.522Z,0.90
2019-01-04T00:53:39.036Z,0.90
2019-01-04T00:56:22.471Z,0.90
2019-01-04T00:59:06.125Z,1.00
2019-01-04T01:01:56.141Z,1.00
2019-01-04T01:04:47.582Z,1.00
2019-01-04T01:07:30.470Z,1.00
2019-01-04T01:10:10.634Z,1.00
2019-01-04T01:12:57.417Z,1.00
2019-01-04T01:15:40.750Z,0.90
2019-01-04T01:18:34.482Z,0.90
2019-01-04T01:21:20.938Z,1.00
2019-01-04T01:24:34.391Z,0.90
2019-01-04T01:27:42.155Z,1.00
2019-01-04T01:30:26.275Z,1.00
2019-01-04T01:33:04.894Z,1.00
2019-01-04T01:35:45.083Z,1.00
2019-01-04T01:38:48.793Z,1.00
2019-01-04T01:41:40.103Z,1.00
2019-01-04T01:44:35.754Z,1.00
2019-01-04T01:47:07.293Z,1.00
2019-01-04T01:49:56.923Z,1.00
2019-01-04T01:52:28.526Z,1.00
2019-01-04T01:54:57.241Z,0.90
2019-01-04T01:57:25.670Z,0.90
2019-01-04T01:59:54.130Z,0.90
2019-01-04T02:02:22.570Z,0.90
2019-01-04T02:04:51.021Z,0.90
2019-01-04T02:07:19.487Z,0.90
2019-01-04T02:09:47.922Z,0.90
2019-01-04T02:12:16.477Z,0.90
2019-01-04T02:14:44.909Z,0.90
2019-01-04T02:17:13.368Z,0.90
2019-01-04T02:19:41.895Z,0.90
2019-01-04T02:22:10.326Z,1.00
2019-01-04T02:24:38.785Z,1.00
2019-01-04T02:27:07.237Z,1.00
2019-01-04T02:29:35.990Z,1.00
2019-01-04T02:32:04.538Z,1.00
2019-01-04T02:34:32.973Z,1.00
2019-01-04T02:37:01.412Z,1.00
2019-01-04T02:39:29.874Z,1.00
2019-01-04T02:41:58.305Z,0.90
2019-01-04T02:44:26.764Z,0.90
2019-01-04T02:46:55.228Z,0.90
2019-01-04T02:49:23.674Z,0.90
2019-01-04T02:51:52.182Z,0.90
2019-01-04T02:54:20.645Z,1.00
2019-01-04T02:56:49.091Z,0.90
2019-01-04T02:59:17.545Z,0.90
2019-01-04T03:01:46.114Z,1.00
2019-01-04T03:04:14.618Z,0.90
2019-01-04T03:06:43.050Z,1.00
2019-01-04T03:09:11.524Z,1.00
2019-01-04T03:11:39.966Z,1.00
2019-01-04T03:14:08.405Z,1.00
2019-01-04T03:16:36.865Z,1.00
2019-01-04T03:19:05.302Z,0.90
2019-01-04T03:21:33.769Z,0.90
2019-01-04T03:24:02.234Z,1.00
2019-01-04T03:26:30.688Z,1.00
2019-01-04T03:28:59.121Z,1.00
2019-01-04T03:31:27.579Z,1.00
2019-01-04T03:33:56.026Z,1.00
2019-01-04T03:36:43.825Z,1.00
2019-01-04T03:39:12.950Z,1.00
2019-01-04T03:41:42.050Z,1.00
2019-01-04T03:44:11.302Z,1.00
2019-01-04T03:46:39.795Z,0.90
2019-01-04T03:49:08.259Z,1.00
2019-01-04T03:51:56.059Z,1.00
2019-01-04T03:54:24.676Z,1.00
2019-01-04T03:56:53.163Z,1.00
2019-01-04T03:59:21.614Z,1.00
2019-01-04T04:01:50.206Z,1.00
2019-01-04T04:04:18.671Z,1.00
2019-01-04T04:06:47.204Z,0.90
2019-01-04T04:09:15.642Z,0.90
2019-01-04T04:11:44.081Z,0.90
2019-01-04T04:14:12.551Z,0.80
2019-01-04T04:16:41.055Z,0.80
2019-01-04T04:19:09.495Z,0.80
2019-01-04T04:21:37.954Z,0.80
2019-01-04T04:24:06.434Z,0.80
2019-01-04T04:26:34.906Z,0.80
2019-01-04T04:29:03.355Z,0.80
2019-01-04T04:31:31.791Z,0.80
2019-01-04T04:34:00.263Z,0.80
2019-01-04T04:36:28.842Z,0.80
2019-01-04T04:38:57.380Z,0.80
2019-01-04T04:41:25.838Z,0.80
2019-01-04T04:43:54.614Z,0.80
2019-01-04T04:46:23.082Z,0.80
2019-01-04T04:48:51.578Z,0.70
2019-01-04T04:51:20.039Z,0.70
2019-01-04T04:53:48.568Z,0.70
2019-01-04T04:56:17.008Z,0.70
2019-01-04T04:58:45.452Z,0.70
2019-01-04T05:01:13.911Z,0.70
2019-01-04T05:03:42.371Z,0.60
2019-01-04T05:06:10.856Z,0.60
2019-01-04T05:08:39.299Z,0.60
2019-01-04T05:11:07.749Z,0.60
2019-01-04T05:13:36.208Z,0.60
2019-01-04T05:16:04.646Z,0.60
2019-01-04T05:18:52.451Z,0.60
2019-01-04T05:21:20.886Z,0.60
2019-01-04T05:23:49.351Z,0.70
2019-01-04T05:26:17.810Z,0.70
2019-01-04T05:28:46.252Z,0.70
2019-01-04T05:31:14.717Z,0.70
2019-01-04T05:33:43.156Z,0.70
2019-01-04T05:36:11.669Z,0.70
2019-01-04T05:38:40.135Z,0.80
2019-01-04T05:41:08.574Z,0.80
2019-01-04T05:43:37.014Z,0.80
2019-01-04T05:46:05.553Z,0.80
2019-01-04T05:48:34.094Z,0.80
2019-01-04T05:51:02.568Z,0.70
2019-01-04T05:53:31.005Z,0.70
2019-01-04T05:55:59.445Z,0.70
2019-01-04T05:58:27.985Z,0.70
2019-01-04T06:00:56.411Z,0.70
2019-01-04T06:03:24.859Z,0.80
2019-01-04T06:05:53.404Z,0.80
2019-01-04T06:08:21.922Z,0.80
2019-01-04T06:10:50.387Z,0.80
2019-01-04T06:13:18.818Z,0.80
2019-01-04T06:15:47.330Z,0.90
2019-01-04T06:18:15.858Z,1.00
2019-01-04T06:20:44.392Z,0.90
2019-01-04T06:23:12.850Z,0.90
2019-01-04T06:25:41.290Z,0.90
2019-01-04T06:28:09.737Z,0.90
2019-01-04T06:30:38.298Z,0.90
2019-01-04T06:33:06.736Z,0.90
2019-01-04T06:35:35.287Z,0.90
2019-01-04T06:38:03.795Z,0.90
2019-01-04T06:40:32.279Z,0.90
2019-01-04T06:43:00.786Z,0.90
2019-01-04T06:45:29.262Z,0.90
2019-01-04T06:47:57.721Z,0.90
2019-01-04T06:50:26.238Z,0.90
2019-01-04T06:52:54.679Z,0.90
2019-01-04T06:55:38.043Z,0.90
2019-01-04T06:58:06.558Z,0.90
2019-01-04T07:00:35.092Z,0.90
2019-01-04T07:03:03.565Z,0.80
2019-01-04T07:05:32.075Z,0.90
2019-01-04T07:08:00.554Z,0.90
2019-01-04T07:10:29.001Z,0.90
2019-01-04T07:12:57.523Z,0.90
2019-01-04T07:15:25.978Z,0.80
2019-01-04T07:17:54.414Z,0.90
2019-01-04T07:20:22.871Z,0.90
2019-01-04T07:22:51.324Z,0.90
2019-01-04T07:25:39.195Z,0.90
2019-01-04T07:28:07.647Z,1.00
2019-01-04T07:30:36.183Z,0.90
2019-01-04T07:33:04.961Z,0.80
2019-01-04T07:35:52.883Z,0.90
2019-01-04T07:38:21.346Z,0.90
2019-01-04T07:40:49.776Z,0.80
2019-01-04T07:43:18.312Z,0.80
2019-01-04T07:45:46.829Z,0.80
2019-01-04T07:48:15.262Z,0.90
2019-01-04T07:50:43.704Z,0.90
2019-01-04T07:53:31.499Z,0.90
2019-01-04T07:56:00.626Z,0.90
2019-01-04T07:58:37.758Z,0.90
2019-01-04T08:01:06.209Z,0.90
2019-01-04T08:03:34.719Z,0.90
2019-01-04T08:08:58.482Z,1.00
2019-01-04T08:11:26.940Z,1.10
2019-01-04T08:13:55.458Z,1.10
2019-01-04T08:16:23.933Z,1.10
2019-01-04T08:18:52.365Z,1.10
2019-01-04T08:21:20.808Z,1.20
2019-01-04T08:23:49.275Z,1.10
2019-01-04T08:26:17.862Z,1.10
2019-01-04T08:31:58.133Z,1.20
2019-01-04T08:34:27.802Z,1.20
2019-01-04T08:36:56.254Z,1.20
2019-01-04T08:39:24.775Z,1.20
2019-01-04T08:41:53.279Z,1.20
2019-01-04T08:44:21.742Z,1.20
2019-01-04T08:46:50.184Z,1.30
2019-01-04T08:49:18.639Z,1.30
2019-01-04T08:51:47.102Z,1.30
2019-01-04T08:54:15.577Z,1.30
2019-01-04T08:56:44.085Z,1.30
2019-01-04T08:59:12.673Z,1.30
2019-01-04T09:01:41.179Z,1.30
2019-01-04T09:04:28.989Z,1.30
2019-01-04T09:06:57.503Z,1.30
2019-01-04T09:09:26.022Z,1.40
2019-01-04T09:11:54.546Z,1.40
2019-01-04T09:14:22.982Z,1.40
2019-01-04T09:16:51.453Z,1.50
2019-01-04T09:19:19.930Z,1.60
2019-01-04T09:21:48.394Z,1.60
2019-01-04T09:24:18.495Z,1.60
2019-01-04T09:26:47.569Z,1.40
2019-01-04T09:29:16.132Z,1.10
2019-01-04T09:31:44.666Z,1.20
2019-01-04T09:34:13.121Z,1.30
2019-01-04T09:36:41.738Z,1.40
2019-01-04T09:39:10.250Z,1.50
2019-01-04T09:41:38.690Z,1.70
2019-01-04T09:44:07.154Z,1.80
2019-01-04T09:46:35.591Z,1.80
2019-01-04T09:49:04.130Z,1.70
2019-01-04T09:51:32.572Z,1.80
2019-01-04T09:54:01.018Z,1.80
2019-01-04T09:56:29.481Z,1.70
2019-01-04T09:59:17.267Z,1.50
2019-01-04T10:01:45.737Z,1.70
2019-01-04T10:04:14.399Z,1.80
2019-01-04T10:06:42.916Z,1.90
2019-01-04T10:09:11.383Z,1.90
2019-01-04T10:11:40.047Z,1.90
2019-01-04T10:14:08.966Z,2.00
2019-01-04T10:16:37.402Z,1.90
2019-01-04T10:19:05.869Z,2.00
2019-01-04T10:21:34.522Z,2.00
2019-01-04T10:24:03.253Z,2.10
2019-01-04T10:26:51.318Z,2.10
2019-01-04T10:29:19.823Z,2.20
2019-01-04T10:31:48.339Z,2.20
2019-01-04T10:34:16.872Z,2.30
2019-01-04T10:36:45.326Z,2.30
2019-01-04T10:39:13.767Z,2.30
2019-01-04T10:41:42.258Z,2.20
2019-01-04T10:44:10.706Z,2.30
2019-01-04T10:46:39.227Z,2.20
2019-01-04T10:49:07.762Z,2.20
2019-01-04T10:51:36.302Z,2.20
2019-01-04T10:54:04.903Z,2.30
2019-01-04T10:56:33.444Z,2.30
2019-01-04T10:59:02.068Z,2.30
2019-01-04T11:01:30.582Z,2.30
2019-01-04T11:04:00.007Z,2.30
2019-01-04T11:06:29.436Z,2.40
2019-01-04T11:08:57.977Z,2.20
2019-01-04T11:11:26.418Z,2.20
2019-01-04T11:13:57.390Z,2.20
2019-01-04T11:16:25.832Z,2.10
2019-01-04T11:18:54.653Z,2.10
2019-01-04T11:21:23.101Z,2.20
2019-01-04T11:24:06.522Z,2.10
2019-01-04T11:26:41.366Z,2.10
2019-01-04T11:29:21.576Z,2.20
2019-01-04T11:31:55.777Z,2.20
2019-01-04T11:34:32.818Z,2.20
2019-01-04T11:37:39.920Z,2.20
2019-01-04T11:40:17.834Z,2.20
2019-01-04T11:43:04.546Z,2.20
2019-01-04T11:45:50.711Z,2.20
2019-01-04T11:48:43.706Z,2.10
2019-01-04T11:51:18.650Z,2.00
2019-01-04T11:53:47.092Z,2.10
2019-01-04T11:56:15.602Z,2.00
2019-01-04T11:58:44.073Z,1.90
2019-01-04T12:01:12.582Z,2.00
2019-01-04T12:03:41.014Z,2.00
2019-01-04T12:06:09.475Z,2.00
2019-01-04T12:08:38.040Z,2.00
2019-01-04T12:11:25.909Z,2.00
2019-01-04T12:13:54.408Z,2.00
2019-01-04T12:16:22.990Z,2.00
2019-01-04T12:18:51.930Z,2.00
2019-01-04T12:21:20.368Z,2.00
2019-01-04T12:23:48.810Z,2.10
2019-01-04T12:26:36.611Z,2.10
2019-01-04T12:29:24.466Z,2.20
2019-01-04T12:31:53.011Z,2.20
2019-01-04T12:34:21.451Z,2.20
2019-01-04T12:36:49.906Z,2.10
2019-01-04T12:39:18.372Z,2.00
2019-01-04T12:41:46.851Z,2.00
2019-01-04T12:44:15.286Z,2.00
2019-01-04T12:46:43.750Z,2.00
2019-01-04T12:49:12.212Z,2.00
2019-01-04T12:51:40.786Z,2.00
2019-01-04T12:54:09.916Z,2.00
2019-01-04T12:56:38.426Z,2.00
2019-01-04T12:59:07.014Z,2.00
2019-01-04T13:01:35.458Z,2.00
2019-01-04T13:04:03.977Z,2.00
2019-01-04T13:06:32.427Z,2.00
2019-01-04T13:09:00.894Z,2.00
2019-01-04T13:11:29.432Z,2.00
2019-01-04T13:13:58.074Z,2.00
2019-01-04T13:16:26.530Z,2.00
2019-01-04T13:18:54.991Z,2.00
2019-01-04T13:21:43.121Z,1.90
2019-01-04T13:24:11.582Z,2.00
2019-01-04T13:26:59.362Z,2.00
2019-01-04T13:29:27.831Z,2.10
2019-01-04T13:31:56.345Z,2.10
2019-01-04T13:34:24.991Z,2.10
2019-01-04T13:36:54.783Z,2.10
2019-01-04T13:39:23.302Z,2.10
2019-01-04T13:41:51.845Z,2.20
2019-01-04T13:44:20.355Z,2.20
2019-01-04T13:46:48.786Z,2.20
2019-01-04T13:49:17.405Z,2.30
2019-01-04T13:51:45.890Z,2.20
2019-01-04T13:54:14.403Z,2.30
2019-01-04T13:57:02.379Z,2.20
2019-01-04T13:59:30.839Z,2.20
2019-01-04T14:01:59.279Z,2.20
2019-01-04T14:04:27.715Z,2.10
2019-01-04T14:06:56.161Z,2.10
2019-01-04T14:09:24.694Z,2.00
2019-01-04T14:11:54.050Z,2.00
2019-01-04T14:14:22.521Z,2.00
2019-01-04T14:16:51.037Z,2.00
2019-01-04T14:19:19.474Z,2.00
2019-01-04T14:21:50.182Z,2.00
2019-01-04T14:24:20.452Z,2.00
2019-01-04T14:26:49.022Z,2.00
2019-01-04T14:29:17.481Z,1.90
2019-01-04T14:31:45.925Z,2.00
2019-01-04T14:34:14.658Z,1.90
2019-01-04T14:36:43.206Z,1.90
2019-01-04T14:39:11.657Z,2.00
2019-01-04T14:41:40.237Z,2.00
2019-01-04T14:44:08.757Z,2.00
2019-01-04T14:46:37.457Z,2.00
2019-01-04T14:49:05.937Z,2.00
2019-01-04T14:51:34.366Z,2.00
2019-01-04T14:54:02.797Z,2.00
2019-01-04T14:56:31.255Z,2.00
2019-01-04T14:59:01.239Z,2.00
2019-01-04T15:01:29.670Z,2.00
2019-01-04T15:03:58.124Z,1.90
2019-01-04T15:06:26.858Z,1.90
2019-01-04T15:08:55.310Z,1.90
2019-01-04T15:11:23.818Z,1.80
2019-01-04T15:13:52.292Z,1.80
2019-01-04T15:16:20.784Z,1.80
2019-01-04T15:18:49.234Z,1.80
2019-01-04T15:21:17.778Z,1.80
2019-01-04T15:23:46.513Z,1.80
2019-01-04T15:26:15.079Z,1.80
2019-01-04T15:28:43.566Z,1.70
2019-01-04T15:31:11.998Z,1.70
2019-01-04T15:33:40.457Z,1.70
2019-01-04T15:36:09.226Z,1.70
2019-01-04T15:38:37.658Z,1.70
2019-01-04T15:41:06.215Z,1.70
2019-01-04T15:43:34.702Z,1.70
2019-01-04T15:46:03.134Z,1.70
2019-01-04T15:48:31.900Z,1.70
2019-01-04T15:51:00.412Z,1.80
2019-01-04T15:53:28.863Z,1.80
2019-01-04T15:55:57.349Z,1.80
2019-01-04T15:58:25.897Z,1.80
2019-01-04T16:00:54.329Z,1.80
2019-01-04T16:03:22.821Z,1.80
2019-01-04T16:05:51.253Z,1.80
2019-01-04T16:08:19.801Z,1.80
2019-01-04T16:10:48.301Z,1.80
2019-01-04T16:13:16.765Z,1.80
2019-01-04T16:15:45.217Z,1.80
2019-01-04T16:18:13.745Z,1.80
2019-01-04T16:20:42.202Z,1.90
2019-01-04T16:23:10.633Z,1.90
2019-01-04T16:25:39.069Z,1.90
2019-01-04T16:28:07.522Z,1.90
2019-01-04T16:30:37.877Z,1.90
2019-01-04T16:33:06.370Z,1.90
2019-01-04T16:35:34.882Z,2.00
2019-01-04T16:38:03.369Z,1.90
2019-01-04T16:40:31.886Z,1.90
2019-01-04T16:43:19.683Z,1.90
2019-01-04T16:45:48.118Z,1.90
2019-01-04T16:48:16.817Z,1.80
2019-01-04T16:50:45.568Z,1.80
2019-01-04T16:53:14.251Z,1.80
2019-01-04T16:55:42.693Z,1.80
2019-01-04T16:58:11.367Z,1.70
2019-01-04T17:00:40.083Z,1.70
2019-01-04T17:03:08.911Z,1.70
2019-01-04T17:05:37.932Z,1.80
2019-01-04T17:08:10.818Z,1.80
2019-01-04T17:10:39.666Z,1.80
2019-01-04T17:13:08.230Z,1.70
2019-01-04T17:15:36.698Z,1.80
2019-01-04T17:18:05.612Z,1.80
2019-01-04T17:20:34.141Z,1.80
2019-01-04T17:23:04.726Z,1.80
2019-01-04T17:25:37.568Z,1.80
2019-01-04T17:28:06.077Z,1.80
2019-01-04T17:30:34.515Z,1.80
2019-01-04T17:33:03.347Z,1.70
2019-01-04T17:35:33.367Z,1.80
2019-01-04T17:38:05.623Z,1.80
2019-01-04T17:40:34.873Z,1.80
2019-01-04T17:43:14.617Z,1.70
2019-01-04T17:45:43.465Z,1.70
2019-01-04T17:48:14.893Z,1.60
2019-01-04T17:50:43.464Z,1.60
2019-01-04T17:53:12.179Z,1.60
2019-01-04T17:55:41.019Z,1.60
2019-01-04T17:58:09.846Z,1.60
2019-01-04T18:00:39.809Z,1.60
2019-01-04T18:03:10.816Z,1.60
2019-01-04T18:05:39.441Z,1.50
2019-01-04T18:08:07.981Z,1.50
2019-01-04T18:10:36.642Z,1.50
2019-01-04T18:13:05.694Z,1.50
2019-01-04T18:15:34.731Z,1.40
2019-01-04T18:18:03.710Z,1.40
2019-01-04T18:20:32.409Z,1.40
2019-01-04T18:23:00.842Z,1.40
2019-01-04T18:25:29.306Z,1.30
2019-01-04T18:27:57.984Z,1.30
2019-01-04T18:30:27.318Z,1.30
2019-01-04T18:32:56.390Z,1.30
2019-01-04T18:35:24.990Z,1.30
2019-01-04T18:37:53.426Z,1.30
2019-01-04T18:40:21.957Z,1.30
2019-01-04T18:42:50.915Z,1.30
2019-01-04T18:45:19.654Z,1.30
2019-01-04T18:48:07.857Z,1.30
2019-01-04T18:50:36.747Z,1.30
2019-01-04T18:53:05.192Z,1.30
2019-01-04T18:55:33.806Z,1.30
2019-01-04T18:58:02.399Z,1.30
2019-01-04T19:00:30.870Z,1.30
2019-01-04T19:02:59.610Z,1.30
2019-01-04T19:05:28.094Z,1.30
2019-01-04T19:07:56.874Z,1.30
2019-01-04T19:10:25.398Z,1.30
2019-01-04T19:12:54.375Z,1.30
2019-01-04T19:15:23.138Z,1.30
2019-01-04T19:17:51.741Z,1.30
2019-01-04T19:20:20.200Z,1.40
2019-01-04T19:22:48.630Z,1.30
2019-01-04T19:25:17.502Z,1.30
2019-01-04T19:28:05.390Z,1.40
2019-01-04T19:30:33.952Z,1.40
2019-01-04T19:33:02.450Z,1.40
2019-01-04T19:35:31.372Z,1.40
2019-01-04T19:38:00.217Z,1.40
2019-01-04T19:40:48.209Z,1.40
2019-01-04T19:43:16.826Z,1.50
2019-01-04T19:45:45.398Z,1.50
2019-01-04T19:48:14.214Z,1.50
2019-01-04T19:50:42.739Z,1.50
2019-01-04T19:53:11.250Z,1.50
2019-01-04T19:55:39.944Z,1.50
2019-01-04T19:58:08.668Z,1.60
2019-01-04T20:00:37.426Z,1.60
2019-01-04T20:03:06.198Z,1.50
2019-01-04T20:05:48.409Z,1.60
2019-01-04T20:09:03.146Z,1.60
2019-01-04T20:12:21.366Z,1.60
2019-01-04T20:15:12.567Z,1.60
2019-01-04T20:17:59.417Z,1.60
2019-01-04T20:20:29.517Z,1.60
2019-01-04T20:22:59.611Z,1.50
2019-01-04T20:25:29.843Z,1.50
2019-01-04T20:28:16.760Z,1.50
2019-01-04T20:30:46.934Z,1.40
2019-01-04T20:33:22.865Z,1.30
2019-01-04T20:35:55.763Z,1.30
2019-01-04T20:38:41.342Z,1.30
2019-01-04T20:41:27.746Z,1.30
2019-01-04T20:44:00.801Z,1.20
2019-01-04T20:46:36.727Z,1.20
2019-01-04T20:49:06.801Z,1.20
2019-01-04T20:51:42.453Z,1.20
2019-01-04T20:54:15.225Z,1.20
2019-01-04T20:57:02.942Z,1.10
2019-01-04T20:59:33.026Z,1.20
2019-01-04T21:02:19.997Z,1.20
2019-01-04T21:05:06.223Z,1.20
2019-01-04T21:07:53.880Z,1.20
2019-01-04T21:10:40.624Z,1.20
2019-01-04T21:13:16.789Z,1.20
2019-01-04T21:15:52.863Z,1.20
2019-01-04T21:18:38.411Z,1.20
2019-01-04T21:21:08.847Z,1.20
2019-01-04T21:23:41.619Z,1.30
2019-01-04T21:26:11.734Z,1.20
2019-01-04T21:29:00.010Z,1.20
2019-01-04T21:31:33.167Z,1.20
2019-01-04T21:34:05.888Z,1.20
2019-01-04T21:36:51.378Z,1.30
2019-01-04T21:39:21.813Z,1.30
2019-01-04T21:42:08.146Z,1.30
2019-01-04T21:44:50.466Z,1.30
2019-01-04T21:47:51.974Z,1.30
2019-01-04T21:50:22.061Z,1.30
2019-01-04T21:52:54.686Z,1.30
2019-01-04T21:55:24.812Z,1.30
2019-01-04T21:58:10.145Z,1.30
2019-01-04T22:01:02.707Z,1.30
2019-01-04T22:03:32.863Z,1.40
2019-01-04T22:06:08.766Z,1.40
2019-01-04T22:08:44.851Z,1.40
2019-01-04T22:11:14.977Z,1.40
2019-01-04T22:14:01.771Z,1.40
2019-01-04T22:16:37.919Z,1.40
2019-01-04T22:19:20.351Z,1.40
2019-01-04T22:21:50.517Z,1.40
2019-01-04T22:24:32.642Z,1.40
2019-01-04T22:27:18.950Z,1.40
2019-01-04T22:29:55.570Z,1.40
2019-01-04T22:32:25.670Z,1.40
2019-01-04T22:34:55.754Z,1.30
2019-01-04T22:37:47.935Z,1.40
2019-01-04T22:40:36.543Z,1.40
2019-01-04T22:43:09.105Z,1.40
2019-01-04T22:45:39.182Z,1.40
2019-01-04T22:48:25.394Z,1.40
2019-01-04T22:51:11.922Z,1.40
2019-01-04T22:53:44.749Z,1.30
2019-01-04T22:59:20.357Z,1.30
2019-01-04T23:01:53.138Z,1.30
2019-01-04T23:04:23.290Z,1.30
2019-01-04T23:06:56.157Z,1.30
2019-01-04T23:09:26.246Z,1.30
2019-01-04T23:11:59.315Z,1.30
2019-01-04T23:14:45.943Z,1.30
2019-01-04T23:17:19.257Z,1.30
2019-01-04T23:20:01.212Z,1.30
2019-01-04T23:23:11.413Z,1.30
2019-01-04T23:25:53.285Z,1.40
2019-01-04T23:28:32.592Z,1.40
2019-01-04T23:31:14.591Z,1.30
2019-01-04T23:34:03.192Z,1.40
2019-01-04T23:36:49.779Z,1.40
2019-01-04T23:42:28.798Z,1.40
2019-01-04T23:47:51.759Z,1.40
2019-01-04T23:50:37.966Z,1.40
2019-01-04T23:56:00.011Z,1.40
2019-01-04T23:58:30.102Z,1.40
